Time;durP1;ratioP1;P1;durP2;ratioP2;P2;SDS_P1;SDS_P2;PMS_P1;PMS_P2;Temp;Humidity;BMP_temperature;BMP_pressure;BME280_temperature;BME280_humidity;BME280_pressure;Samples;Min_cycle;Max_cycle;Signal;HPM_P1;HPM_P2
2022/04/26 03:36:06;;;;;;;;;;;;;;;;;;323090;30;881;-77
2022/04/26 03:36:07;;;;;;;;;;;;;;;;;;320850;30;953;-77
2022/04/26 03:36:17;;;;;;;;;;;;;;;;;;320877;30;946;-77
2022/04/26 03:36:27;;;;;;;;;;;;;;;;;;320928;30;933;-77
2022/04/26 03:36:37;;;;;;;;;;;;;;;;;;320912;30;997;-77
2022/04/26 03:36:47;;;;;;;;;;;;;;;;;;321231;30;1417;-77
2022/04/26 03:36:59;;;;;;;;;;;;;;;;;;322001;30;806;-77
2022/04/26 03:37:12;;;;;;;;;;;;;;;;;;322042;30;795;-77
2022/04/26 03:37:23;;;;;;;;;;;;;;;;;;322067;30;877;-77
2022/04/26 03:37:33;;;;;;;;;;;;;;;;;;322077;30;878;-77
2022/04/26 03:37:45;;;;;;;;;;;;;;;;;;322093;30;807;-77
2022/04/26 03:37:55;;;;;;;;;;;;;;;;;;322030;30;1004;-77
2022/04/26 03:38:05;;;;;;;;;;;;;;;;;;322059;30;941;-77
2022/04/26 03:38:18;;;;;;;;;;;;;;;;;;322052;30;918;-77
2022/04/26 03:38:28;;;;;;;;;;;;;;;;;;322075;30;949;-77
2022/04/26 03:38:43;;;;;;;;;;;;;;;;;;322082;30;764;-77
2022/04/26 03:38:53;;;;;;;;;;;;;;;;;;322085;30;898;-77
2022/04/26 03:39:04;;;;;;;;;;;;;;;;;;322043;30;925;-77
2022/04/26 03:39:15;;;;;;;;;;;;;;;;;;322058;30;861;-77
2022/04/26 03:39:26;;;;;;;;;;;;;;;;;;322029;30;870;-77
2022/04/26 03:39:36;;;;;;;;;;;;;;;;;;322036;30;930;-77
2022/04/26 03:39:46;;;;;;;;;;;;;;;;;;322030;30;992;-77
2022/04/26 03:39:56;;;;;;;;;;;;;;;;;;322055;30;934;-77
2022/04/26 03:40:07;;;;;;;;;;;;;;;;;;322072;30;926;-77
2022/04/26 03:40:17;;;;;;;;;;;;;;;;;;321976;30;977;-77
2022/04/26 03:40:28;;;;;;;;;;;;;;;;;;321666;30;1342;-77
2022/04/26 03:40:38;;;;;;;;;;;;;;;;;;321820;30;1365;-77
2022/04/26 03:40:48;;;;;;;;;;;;;;;;;;321977;30;1563;-77
2022/04/26 03:40:59;;;;;;;;;;;;;;;;;;322093;30;969;-77
2022/04/26 03:41:09;;;;;;;;;;;;;;;;;;321990;30;1598;-77
2022/04/26 03:41:20;;;;;;;;;;;;;;;;;;322037;30;937;-77
2022/04/26 03:41:30;;;;;;;;;;;;;;;;;;321972;30;934;-77
2022/04/26 03:41:40;;;;;;;;;;;;;;;;;;322037;30;988;-77
2022/04/26 03:41:51;;;;;;;;;;;;;;;;;;322101;30;858;-77
2022/04/26 03:42:05;;;;;;;;;;;;;;;;;;322072;30;847;-77
2022/04/26 03:42:15;;;;;;;;;;;;;;;;;;322034;30;988;-77
2022/04/26 03:42:25;;;;;;;;;;;;;;;;;;322009;30;985;-77
2022/04/26 03:42:36;;;;;;;;;;;;;;;;;;322102;30;913;-77
2022/04/26 03:42:46;;;;;;;;;;;;;;;;;;322060;30;937;-77
2022/04/26 03:42:56;;;;;;;;;;;;;;;;;;322078;30;905;-77
2022/04/26 03:43:06;;;;;;;;;;;;;;;;;;322100;30;937;-77
2022/04/26 03:43:16;;;;;;;;;;;;;;;;;;322006;30;858;-77
2022/04/26 03:43:27;;;;;;;;;;;;;;;;;;322049;30;985;-77
2022/04/26 03:43:37;;;;;;;;;;;;;;;;;;321993;30;973;-77
2022/04/26 03:43:48;;;;;;;;;;;;;;;;;;322060;30;941;-77
2022/04/26 03:43:58;;;;;;;;;;;;;;;;;;322070;30;814;-77
2022/04/26 03:44:09;;;;;;;;;;;;;;;;;;322014;30;934;-77
2022/04/26 03:44:19;;;;;;;;;;;;;;;;;;321993;30;1040;-77
2022/04/26 03:44:30;;;;;;;;;;;;;;;;;;322083;30;854;-77
2022/04/26 03:44:40;;;;;;;;;;;;;;;;;;322058;30;940;-77
2022/04/26 03:44:50;;;;;;;;;;;;;;;;;;321487;30;2070;-77
2022/04/26 03:45:01;;;;;;;;;;;;;;;;;;321828;30;1762;-77
2022/04/26 03:45:11;;;;;;;;;;;;;;;;;;322090;30;867;-77
2022/04/26 03:45:21;;;;;;;;;;;;;;;;;;322012;30;910;-77
2022/04/26 03:45:32;;;;;;;;;;;;;;;;;;321432;30;1452;-77
2022/04/26 03:45:42;;;;;;;;;;;;;;;;;;321920;30;1033;-77
2022/04/26 03:45:53;;;;;;;;;;;;;;;;;;321942;30;1912;-77
2022/04/26 03:46:03;;;;;;;;;;;;;;;;;;322055;30;1110;-77
2022/04/26 03:46:13;;;;;;;;;;;;;;;;;;322040;30;977;-77
2022/04/26 03:46:23;;;;;;;;;;;;;;;;;;321870;30;1006;-77
2022/04/26 03:46:34;;;;;;;;;;;;;;;;;;321894;30;1176;-77
2022/04/26 03:46:44;;;;;;;;;;;;;;;;;;321996;30;822;-77
2022/04/26 03:46:54;;;;;;;;;;;;;;;;;;321969;30;811;-77
2022/04/26 03:47:04;;;;;;;;;;;;;;;;;;321947;30;993;-77
2022/04/26 03:47:15;;;;;;;;;;;;;;;;;;321752;30;1246;-77
2022/04/26 03:47:25;;;;;;;;;;;;;;;;;;321952;30;917;-77
2022/04/26 03:47:35;;;;;;;;;;;;;;;;;;320637;30;1345;-77
2022/04/26 03:47:45;;;;;;;;;;;;;;;;;;321381;30;1377;-77
2022/04/26 03:47:55;;;;;;;;;;;;;;;;;;321928;30;976;-77
2022/04/26 03:48:06;;;;;;;;;;;;;;;;;;322014;30;877;-77
2022/04/26 03:48:16;;;;;;;;;;;;;;;;;;321966;30;945;-77
2022/04/26 03:48:28;;;;;;;;;;;;;;;;;;321761;30;779;-77
2022/04/26 03:48:38;;;;;;;;;;;;;;;;;;320829;30;933;-77
2022/04/26 03:48:48;;;;;;;;;;;;;;;;;;320923;30;1040;-77
2022/04/26 03:48:59;;;;;;;;;;;;;;;;;;320784;30;1041;-77
2022/04/26 03:49:09;;;;;;;;;;;;;;;;;;320911;30;927;-77
2022/04/26 03:49:20;;;;;;;;;;;;;;;;;;320733;30;1016;-77
2022/04/26 03:49:30;;;;;;;;;;;;;;;;;;320863;30;798;-77
2022/04/26 03:49:41;;;;;;;;;;;;;;;;;;320871;30;992;-77
2022/04/26 03:49:51;;;;;;;;;;;;;;;;;;320853;30;1016;-77
2022/04/26 03:50:01;;;;;;;;;;;;;;;;;;320842;30;794;-77
2022/04/26 03:50:11;;;;;;;;;;;;;;;;;;320891;30;929;-77
2022/04/26 03:50:22;;;;;;;;;;;;;;;;;;320842;30;1013;-77
2022/04/26 03:50:32;;;;;;;;;;;;;;;;;;320869;30;865;-77
2022/04/26 03:50:42;;;;;;;;;;;;;;;;;;321064;30;1361;-77
2022/04/26 03:50:52;;;;;;;;;;;;;;;;;;321989;30;905;-77
2022/04/26 03:51:02;;;;;;;;;;;;;;;;;;322034;30;996;-77
2022/04/26 03:51:13;;;;;;;;;;;;;;;;;;322086;30;834;-77
2022/04/26 03:51:23;;;;;;;;;;;;;;;;;;321886;30;1053;-77
2022/04/26 03:51:33;;;;;;;;;;;;;;;;;;322037;30;868;-77
2022/04/26 03:51:43;;;;;;;;;;;;;;;;;;322071;30;783;-77
2022/04/26 03:51:54;;;;;;;;;;;;;;;;;;322040;30;973;-77
2022/04/26 03:52:04;;;;;;;;;;;;;;;;;;322030;30;877;-77
2022/04/26 03:52:14;;;;;;;;;;;;;;;;;;322065;30;821;-77
2022/04/26 03:52:24;;;;;;;;;;;;;;;;;;322008;30;964;-77
2022/04/26 03:52:35;;;;;;;;;;;;;;;;;;322033;30;1090;-77
2022/04/26 03:52:45;;;;;;;;;;;;;;;;;;322065;30;988;-77
2022/04/26 03:52:56;;;;;;;;;;;;;;;;;;322039;30;968;-77
2022/04/26 03:53:06;;;;;;;;;;;;;;;;;;322065;30;992;-77
2022/04/26 03:53:16;;;;;;;;;;;;;;;;;;321993;30;1096;-77
2022/04/26 03:53:27;;;;;;;;;;;;;;;;;;322615;30;1186;-77
2022/04/26 03:53:37;;;;;;;;;;;;;;;;;;323219;30;794;-77
2022/04/26 03:53:47;;;;;;;;;;;;;;;;;;323240;30;992;-77
2022/04/26 03:53:58;;;;;;;;;;;;;;;;;;323182;30;921;-77
2022/04/26 03:54:08;;;;;;;;;;;;;;;;;;323064;30;875;-77
2022/04/26 03:54:19;;;;;;;;;;;;;;;;;;323037;30;1010;-77
2022/04/26 03:54:29;;;;;;;;;;;;;;;;;;322775;30;1424;-77
2022/04/26 03:54:39;;;;;;;;;;;;;;;;;;322965;30;1341;-77
2022/04/26 03:54:50;;;;;;;;;;;;;;;;;;323132;30;1519;-77
2022/04/26 03:55:03;;;;;;;;;;;;;;;;;;323202;30;889;-77
2022/04/26 03:55:13;;;;;;;;;;;;;;;;;;322313;30;1946;-77
2022/04/26 03:55:24;;;;;;;;;;;;;;;;;;323237;30;985;-77
2022/04/26 03:55:34;;;;;;;;;;;;;;;;;;323204;30;841;-77
2022/04/26 03:55:45;;;;;;;;;;;;;;;;;;323246;30;916;-77
2022/04/26 03:55:55;;;;;;;;;;;;;;;;;;323151;30;933;-77
2022/04/26 03:56:05;;;;;;;;;;;;;;;;;;323158;30;976;-77
2022/04/26 03:56:16;;;;;;;;;;;;;;;;;;323242;30;968;-77
2022/04/26 03:56:26;;;;;;;;;;;;;;;;;;323186;30;806;-77
2022/04/26 03:56:36;;;;;;;;;;;;;;;;;;323100;30;1135;-77
2022/04/26 03:56:47;;;;;;;;;;;;;;;;;;322604;30;1824;-77
2022/04/26 03:56:58;;;;;;;;;;;;;;;;;;323181;30;909;-77
2022/04/26 03:57:08;;;;;;;;;;;;;;;;;;323191;30;1060;-77
2022/04/26 03:57:18;;;;;;;;;;;;;;;;;;323191;30;814;-77
2022/04/26 03:57:28;;;;;;;;;;;;;;;;;;323224;30;937;-77
2022/04/26 03:57:39;;;;;;;;;;;;;;;;;;323188;30;833;-77
2022/04/26 03:57:49;;;;;;;;;;;;;;;;;;323211;30;996;-77
2022/04/26 03:57:59;;;;;;;;;;;;;;;;;;322510;30;1320;-77
2022/04/26 03:58:10;;;;;;;;;;;;;;;;;;323116;30;984;-76
2022/04/26 03:58:20;;;;;;;;;;;;;;;;;;322241;30;1720;-76
2022/04/26 03:58:31;;;;;;;;;;;;;;;;;;323011;30;1742;-76
2022/04/26 03:58:41;;;;;;;;;;;;;;;;;;323192;30;917;-77
2022/04/26 03:58:52;;;;;;;;;;;;;;;;;;323122;30;1095;-77
2022/04/26 03:59:02;;;;;;;;;;;;;;;;;;323205;30;909;-77
2022/04/26 03:59:12;;;;;;;;;;;;;;;;;;323234;30;949;-77
2022/04/26 03:59:22;;;;;;;;;;;;;;;;;;323221;30;808;-77
2022/04/26 03:59:33;;;;;;;;;;;;;;;;;;323161;30;969;-76
2022/04/26 03:59:43;;;;;;;;;;;;;;;;;;323160;30;1004;-76
2022/04/26 03:59:54;;;;;;;;;;;;;;;;;;322068;30;1579;-76
2022/04/26 04:00:04;;;;;;;;;;;;;;;;;;322959;30;1315;-76
2022/04/26 04:00:15;;;;;;;;;;;;;;;;;;323095;30;981;-76
2022/04/26 04:00:26;;;;;;;;;;;;;;;;;;323230;30;810;-76
2022/04/26 04:00:36;;;;;;;;;;;;;;;;;;323664;30;1528;-76
2022/04/26 04:00:46;;;;;;;;;;;;;;;;;;324388;30;773;-76
2022/04/26 04:00:57;;;;;;;;;;;;;;;;;;324015;30;977;-76
2022/04/26 04:01:07;;;;;;;;;;;;;;;;;;323222;30;929;-76
2022/04/26 04:01:17;;;;;;;;;;;;;;;;;;323181;30;926;-76
2022/04/26 04:01:27;;;;;;;;;;;;;;;;;;322539;30;1970;-76
2022/04/26 04:01:38;;;;;;;;;;;;;;;;;;323069;30;1579;-76
2022/04/26 04:01:48;;;;;;;;;;;;;;;;;;323100;30;1172;-76
2022/04/26 04:01:58;;;;;;;;;;;;;;;;;;322549;30;1349;-77
2022/04/26 04:02:08;;;;;;;;;;;;;;;;;;323827;30;1489;-76
2022/04/26 04:02:19;;;;;;;;;;;;;;;;;;324373;30;905;-76
2022/04/26 04:02:29;;;;;;;;;;;;;;;;;;324408;30;1024;-77
2022/04/26 04:02:39;;;;;;;;;;;;;;;;;;323861;30;1359;-76
2022/04/26 04:02:50;;;;;;;;;;;;;;;;;;323228;30;782;-76
2022/04/26 04:03:00;;;;;;;;;;;;;;;;;;323183;30;973;-76
2022/04/26 04:03:10;;;;;;;;;;;;;;;;;;323225;30;841;-77
2022/04/26 04:03:21;;;;;;;;;;;;;;;;;;323184;30;960;-77
2022/04/26 04:03:31;;;;;;;;;;;;;;;;;;323974;30;1445;-77
2022/04/26 04:03:41;;;;;;;;;;;;;;;;;;323221;30;1684;-76
2022/04/26 04:03:51;;;;;;;;;;;;;;;;;;322673;30;1378;-76
2022/04/26 04:04:02;;;;;;;;;;;;;;;;;;322471;30;1491;-76
2022/04/26 04:04:12;;;;;;;;;;;;;;;;;;323700;30;1529;-76
2022/04/26 04:04:23;;;;;;;;;;;;;;;;;;324355;30;933;-76
2022/04/26 04:04:33;;;;;;;;;;;;;;;;;;324344;30;933;-76
2022/04/26 04:04:43;;;;;;;;;;;;;;;;;;323288;30;1537;-76
2022/04/26 04:04:53;;;;;;;;;;;;;;;;;;323247;30;806;-76
2022/04/26 04:05:04;;;;;;;;;;;;;;;;;;322111;30;1595;-76
2022/04/26 04:05:14;;;;;;;;;;;;;;;;;;323208;30;985;-76
2022/04/26 04:05:25;;;;;;;;;;;;;;;;;;323171;30;929;-76
2022/04/26 04:05:35;;;;;;;;;;;;;;;;;;323188;30;879;-76
2022/04/26 04:05:45;;;;;;;;;;;;;;;;;;322938;30;1217;-76
2022/04/26 04:05:55;;;;;;;;;;;;;;;;;;322569;30;1908;-76
2022/04/26 04:06:05;;;;;;;;;;;;;;;;;;323109;30;925;-76
2022/04/26 04:06:16;;;;;;;;;;;;;;;;;;323228;30;817;-76
2022/04/26 04:06:26;;;;;;;;;;;;;;;;;;323216;30;913;-76
2022/04/26 04:06:36;;;;;;;;;;;;;;;;;;323116;30;862;-76
2022/04/26 04:06:46;;;;;;;;;;;;;;;;;;323119;30;1029;-76
2022/04/26 04:06:57;;;;;;;;;;;;;;;;;;323044;30;885;-76
2022/04/26 04:07:07;;;;;;;;;;;;;;;;;;323173;30;858;-76
2022/04/26 04:07:17;;;;;;;;;;;;;;;;;;323209;30;909;-76
2022/04/26 04:07:27;;;;;;;;;;;;;;;;;;323197;30;869;-76
2022/04/26 04:07:38;;;;;;;;;;;;;;;;;;323147;30;877;-76
2022/04/26 04:07:48;;;;;;;;;;;;;;;;;;323186;30;996;-76
2022/04/26 04:07:58;;;;;;;;;;;;;;;;;;323039;30;1148;-76
2022/04/26 04:08:08;;;;;;;;;;;;;;;;;;323156;30;956;-76
2022/04/26 04:08:19;;;;;;;;;;;;;;;;;;323200;30;1039;-76
2022/04/26 04:08:29;;;;;;;;;;;;;;;;;;323174;30;988;-76
2022/04/26 04:08:39;;;;;;;;;;;;;;;;;;323083;30;902;-76
2022/04/26 04:08:49;;;;;;;;;;;;;;;;;;323222;30;798;-76
2022/04/26 04:08:59;;;;;;;;;;;;;;;;;;323181;30;922;-76
2022/04/26 04:09:10;;;;;;;;;;;;;;;;;;323096;30;866;-76
2022/04/26 04:09:20;;;;;;;;;;;;;;;;;;323162;30;766;-76
2022/04/26 04:09:30;;;;;;;;;;;;;;;;;;323184;30;913;-76
2022/04/26 04:09:40;;;;;;;;;;;;;;;;;;323154;30;906;-76
2022/04/26 04:09:52;;;;;;;;;;;;;;;;;;323205;30;790;-76
2022/04/26 04:10:02;;;;;;;;;;;;;;;;;;323144;30;997;-76
2022/04/26 04:10:13;;;;;;;;;;;;;;;;;;323170;30;865;-76
2022/04/26 04:10:23;;;;;;;;;;;;;;;;;;323203;30;976;-76
2022/04/26 04:10:33;;;;;;;;;;;;;;;;;;323219;30;906;-76
2022/04/26 04:10:44;;;;;;;;;;;;;;;;;;322464;30;1324;-76
2022/04/26 04:10:54;;;;;;;;;;;;;;;;;;323075;30;1630;-76
2022/04/26 04:11:04;;;;;;;;;;;;;;;;;;323176;30;914;-76
2022/04/26 04:11:14;;;;;;;;;;;;;;;;;;322701;30;1316;-76
2022/04/26 04:11:25;;;;;;;;;;;;;;;;;;322929;30;1638;-76
2022/04/26 04:11:35;;;;;;;;;;;;;;;;;;322314;30;1117;-76
2022/04/26 04:11:46;;;;;;;;;;;;;;;;;;321965;30;1004;-76
2022/04/26 04:11:57;;;;;;;;;;;;;;;;;;321973;30;921;-76
2022/04/26 04:12:07;;;;;;;;;;;;;;;;;;321974;30;954;-76
2022/04/26 04:12:18;;;;;;;;;;;;;;;;;;321480;30;1175;-76
2022/04/26 04:12:28;;;;;;;;;;;;;;;;;;322045;30;973;-76
2022/04/26 04:12:38;;;;;;;;;;;;;;;;;;321988;30;787;-76
2022/04/26 04:12:48;;;;;;;;;;;;;;;;;;322003;30;834;-76
2022/04/26 04:12:59;;;;;;;;;;;;;;;;;;321977;30;917;-76
2022/04/26 04:13:10;;;;;;;;;;;;;;;;;;322029;30;925;-76
2022/04/26 04:13:20;;;;;;;;;;;;;;;;;;321988;30;862;-76
2022/04/26 04:13:31;;;;;;;;;;;;;;;;;;322998;30;869;-76
2022/04/26 04:13:41;;;;;;;;;;;;;;;;;;323193;30;925;-76
2022/04/26 04:13:51;;;;;;;;;;;;;;;;;;323119;30;958;-76
2022/04/26 04:14:01;;;;;;;;;;;;;;;;;;323156;30;913;-76
2022/04/26 04:14:14;;;;;;;;;;;;;;;;;;323187;30;953;-76
2022/04/26 04:14:24;;;;;;;;;;;;;;;;;;323038;30;1341;-76
2022/04/26 04:14:34;;;;;;;;;;;;;;;;;;322680;30;1662;-76
2022/04/26 04:14:44;;;;;;;;;;;;;;;;;;323098;30;1593;-76
2022/04/26 04:14:55;;;;;;;;;;;;;;;;;;323123;30;1054;-76
2022/04/26 04:15:05;;;;;;;;;;;;;;;;;;323189;30;945;-76
2022/04/26 04:15:15;;;;;;;;;;;;;;;;;;323201;30;936;-76
2022/04/26 04:15:26;;;;;;;;;;;;;;;;;;323117;30;862;-76
2022/04/26 04:15:36;;;;;;;;;;;;;;;;;;323036;30;1395;-76
2022/04/26 04:15:47;;;;;;;;;;;;;;;;;;322773;30;1337;-76
2022/04/26 04:15:57;;;;;;;;;;;;;;;;;;323145;30;929;-76
2022/04/26 04:16:07;;;;;;;;;;;;;;;;;;323027;30;878;-76
2022/04/26 04:16:18;;;;;;;;;;;;;;;;;;323207;30;957;-76
2022/04/26 04:16:28;;;;;;;;;;;;;;;;;;323165;30;909;-76
2022/04/26 04:16:40;;;;;;;;;;;;;;;;;;323227;30;854;-76
2022/04/26 04:16:50;;;;;;;;;;;;;;;;;;323121;30;937;-76
2022/04/26 04:17:00;;;;;;;;;;;;;;;;;;323098;30;985;-76
2022/04/26 04:17:10;;;;;;;;;;;;;;;;;;323156;30;913;-76
2022/04/26 04:17:20;;;;;;;;;;;;;;;;;;323124;30;1523;-76
2022/04/26 04:17:31;;;;;;;;;;;;;;;;;;323079;30;1491;-76
2022/04/26 04:17:41;;;;;;;;;;;;;;;;;;322607;30;1463;-76
2022/04/26 04:17:51;;;;;;;;;;;;;;;;;;323089;30;830;-76
2022/04/26 04:18:02;;;;;;;;;;;;;;;;;;323203;30;861;-76
2022/04/26 04:19:19;;;;;;;;;;;;;;;;;;322505;30;1363;-76
2022/04/26 04:19:30;;;;;;;;;;;;;;;;;;323189;30;1034;-76
2022/04/26 04:19:40;;;;;;;;;;;;;;;;;;322636;30;1361;-76
2022/04/26 04:19:50;;;;;;;;;;;;;;;;;;322915;30;1361;-76
2022/04/26 04:20:01;;;;;;;;;;;;;;;;;;323084;30;1079;-76
2022/04/26 04:20:11;;;;;;;;;;;;;;;;;;322598;30;1743;-76
2022/04/26 04:20:22;;;;;;;;;;;;;;;;;;323192;30;811;-76
2022/04/26 04:20:34;;;;;;;;;;;;;;;;;;323168;30;838;-76
2022/04/26 04:20:45;;;;;;;;;;;;;;;;;;323165;30;945;-76
2022/04/26 04:20:55;;;;;;;;;;;;;;;;;;323196;30;829;-76
2022/04/26 04:21:05;;;;;;;;;;;;;;;;;;323144;30;961;-76
2022/04/26 04:21:15;;;;;;;;;;;;;;;;;;323037;30;1171;-76
2022/04/26 04:21:26;;;;;;;;;;;;;;;;;;323189;30;791;-76
2022/04/26 04:21:36;;;;;;;;;;;;;;;;;;323063;30;1000;-76
2022/04/26 04:21:47;;;;;;;;;;;;;;;;;;323170;30;1036;-76
2022/04/26 04:21:57;;;;;;;;;;;;;;;;;;323075;30;1100;-76
2022/04/26 04:22:07;;;;;;;;;;;;;;;;;;321938;30;1321;-76
2022/04/26 04:22:18;;;;;;;;;;;;;;;;;;323117;30;778;-76
2022/04/26 04:22:28;;;;;;;;;;;;;;;;;;322665;30;1206;-76
2022/04/26 04:22:39;;;;;;;;;;;;;;;;;;323127;30;984;-76
2022/04/26 04:22:49;;;;;;;;;;;;;;;;;;323184;30;999;-76
2022/04/26 04:22:59;;;;;;;;;;;;;;;;;;323157;30;926;-76
2022/04/26 04:23:10;;;;;;;;;;;;;;;;;;322880;30;999;-76
2022/04/26 04:23:21;;;;;;;;;;;;;;;;;;323178;30;792;-76
2022/04/26 04:23:31;;;;;;;;;;;;;;;;;;323224;30;766;-76
2022/04/26 04:23:41;;;;;;;;;;;;;;;;;;323197;30;913;-76
2022/04/26 04:23:51;;;;;;;;;;;;;;;;;;323146;30;1028;-76
2022/04/26 04:24:03;;;;;;;;;;;;;;;;;;322789;30;1320;-76
2022/04/26 04:24:13;;;;;;;;;;;;;;;;;;322878;30;1424;-76
2022/04/26 04:24:24;;;;;;;;;;;;;;;;;;323183;30;957;-76
2022/04/26 04:24:34;;;;;;;;;;;;;;;;;;323171;30;957;-76
2022/04/26 04:24:44;;;;;;;;;;;;;;;;;;323175;30;910;-76
2022/04/26 04:24:54;;;;;;;;;;;;;;;;;;323223;30;814;-76
2022/04/26 04:25:05;;;;;;;;;;;;;;;;;;323158;30;909;-76
2022/04/26 04:25:18;;;;;;;;;;;;;;;;;;323109;30;854;-76
2022/04/26 04:25:28;;;;;;;;;;;;;;;;;;323207;30;811;-76
2022/04/26 04:25:38;;;;;;;;;;;;;;;;;;322705;30;1397;-76
2022/04/26 04:25:49;;;;;;;;;;;;;;;;;;322910;30;1555;-76
2022/04/26 04:25:59;;;;;;;;;;;;;;;;;;323091;30;1971;-76
2022/04/26 04:26:09;;;;;;;;;;;;;;;;;;323189;30;925;-76
2022/04/26 04:26:19;;;;;;;;;;;;;;;;;;323181;30;917;-76
2022/04/26 04:26:29;;;;;;;;;;;;;;;;;;322743;30;1013;-76
2022/04/26 04:26:40;;;;;;;;;;;;;;;;;;322874;30;961;-76
2022/04/26 04:26:50;;;;;;;;;;;;;;;;;;322912;30;916;-76
2022/04/26 04:27:00;;;;;;;;;;;;;;;;;;322959;30;989;-76
2022/04/26 04:27:10;;;;;;;;;;;;;;;;;;322887;30;1036;-76
2022/04/26 04:27:21;;;;;;;;;;;;;;;;;;323049;30;1161;-76
2022/04/26 04:27:31;;;;;;;;;;;;;;;;;;323200;30;1203;-76
2022/04/26 04:27:42;;;;;;;;;;;;;;;;;;323085;30;1025;-76
2022/04/26 04:27:52;;;;;;;;;;;;;;;;;;323200;30;775;-78
2022/04/26 04:28:02;;;;;;;;;;;;;;;;;;323110;30;913;-76
2022/04/26 04:28:13;;;;;;;;;;;;;;;;;;323166;30;881;-74
2022/04/26 04:28:24;;;;;;;;;;;;;;;;;;323184;30;1129;-76
2022/04/26 04:28:34;;;;;;;;;;;;;;;;;;323199;30;921;-76
2022/04/26 04:28:45;;;;;;;;;;;;;;;;;;323225;30;842;-78
2022/04/26 04:28:55;;;;;;;;;;;;;;;;;;323166;30;842;-74
2022/04/26 04:29:06;;;;;;;;;;;;;;;;;;323212;30;929;-76
2022/04/26 04:29:16;;;;;;;;;;;;;;;;;;323181;30;869;-74
2022/04/26 04:29:26;;;;;;;;;;;;;;;;;;323113;30;971;-75
2022/04/26 04:29:36;;;;;;;;;;;;;;;;;;321073;30;2031;-76
2022/04/26 04:29:47;;;;;;;;;;;;;;;;;;320323;30;2317;-74
2022/04/26 04:30:02;;;;;;;;;;;;;;;;;;323151;30;2478;-73
2022/04/26 04:30:12;;;;;;;;;;;;;;;;;;323117;30;806;-74
2022/04/26 04:30:22;;;;;;;;;;;;;;;;;;323719;30;2788;-73
2022/04/26 04:30:32;;;;;;;;;;;;;;;;;;322920;30;1020;-74
2022/04/26 04:30:43;;;;;;;;;;;;;;;;;;322459;30;1407;-74
2022/04/26 04:30:53;;;;;;;;;;;;;;;;;;323083;30;1239;-76
2022/04/26 04:31:03;;;;;;;;;;;;;;;;;;323161;30;782;-73
2022/04/26 04:31:14;;;;;;;;;;;;;;;;;;323016;30;1606;-75
2022/04/26 04:31:24;;;;;;;;;;;;;;;;;;323409;30;1625;-80
2022/04/26 04:31:35;;;;;;;;;;;;;;;;;;322970;30;1345;-74
2022/04/26 04:31:45;;;;;;;;;;;;;;;;;;321800;30;1368;-74
2022/04/26 04:31:55;;;;;;;;;;;;;;;;;;322548;30;1357;-73
2022/04/26 04:32:06;;;;;;;;;;;;;;;;;;322957;30;1705;-74
2022/04/26 04:32:16;;;;;;;;;;;;;;;;;;323016;30;993;-76
2022/04/26 04:32:26;;;;;;;;;;;;;;;;;;323094;30;1493;-75
2022/04/26 04:32:37;;;;;;;;;;;;;;;;;;323141;30;929;-80
2022/04/26 04:32:47;;;;;;;;;;;;;;;;;;323175;30;878;-75
2022/04/26 04:32:57;;;;;;;;;;;;;;;;;;323114;30;940;-76
2022/04/26 04:33:08;;;;;;;;;;;;;;;;;;323979;30;981;-75
2022/04/26 04:33:19;;;;;;;;;;;;;;;;;;324090;30;949;-75
2022/04/26 04:33:29;;;;;;;;;;;;;;;;;;324336;30;952;-78
2022/04/26 04:33:40;;;;;;;;;;;;;;;;;;323408;30;1344;-78
2022/04/26 04:33:50;;;;;;;;;;;;;;;;;;322239;30;1527;-83
2022/04/26 04:34:02;;;;;;;;;;;;;;;;;;323187;30;972;-77
2022/04/26 04:34:12;;;;;;;;;;;;;;;;;;323227;30;837;-76
2022/04/26 04:34:22;;;;;;;;;;;;;;;;;;322404;30;1507;-75
2022/04/26 04:34:33;;;;;;;;;;;;;;;;;;323049;30;1348;-77
2022/04/26 04:34:43;;;;;;;;;;;;;;;;;;323131;30;866;-76
2022/04/26 04:34:53;;;;;;;;;;;;;;;;;;322458;30;1434;-76
2022/04/26 04:35:04;;;;;;;;;;;;;;;;;;323185;30;826;-76
2022/04/26 04:35:14;;;;;;;;;;;;;;;;;;323076;30;1091;-77
2022/04/26 04:35:25;;;;;;;;;;;;;;;;;;323098;30;929;-76
2022/04/26 04:35:35;;;;;;;;;;;;;;;;;;323060;30;1139;-77
2022/04/26 04:35:45;;;;;;;;;;;;;;;;;;321611;30;2331;-84
2022/04/26 04:35:55;;;;;;;;;;;;;;;;;;322977;30;1292;-81
2022/04/26 04:36:06;;;;;;;;;;;;;;;;;;322830;30;1404;-77
2022/04/26 04:36:16;;;;;;;;;;;;;;;;;;322398;30;1539;-79
2022/04/26 04:36:27;;;;;;;;;;;;;;;;;;323139;30;933;-83
2022/04/26 04:36:38;;;;;;;;;;;;;;;;;;323117;30;983;-78
2022/04/26 04:36:48;;;;;;;;;;;;;;;;;;323180;30;870;-77
2022/04/26 04:36:58;;;;;;;;;;;;;;;;;;323094;30;1072;-77
2022/04/26 04:37:09;;;;;;;;;;;;;;;;;;323196;30;850;-77
2022/04/26 04:37:20;;;;;;;;;;;;;;;;;;322432;30;1361;-76
2022/04/26 04:37:30;;;;;;;;;;;;;;;;;;322646;30;1168;-77
2022/04/26 04:37:40;;;;;;;;;;;;;;;;;;322923;30;1685;-76
2022/04/26 04:37:50;;;;;;;;;;;;;;;;;;323083;30;968;-77
2022/04/26 04:38:01;;;;;;;;;;;;;;;;;;323059;30;771;-77
2022/04/26 04:38:11;;;;;;;;;;;;;;;;;;321954;30;1588;-79
2022/04/26 04:38:21;;;;;;;;;;;;;;;;;;323108;30;1888;-79
2022/04/26 04:38:31;;;;;;;;;;;;;;;;;;323110;30;976;-80
2022/04/26 04:38:42;;;;;;;;;;;;;;;;;;323181;30;853;-77
2022/04/26 04:38:52;;;;;;;;;;;;;;;;;;323059;30;1780;-77
2022/04/26 04:39:02;;;;;;;;;;;;;;;;;;323156;30;937;-78
2022/04/26 04:39:19;;;;;;;;;;;;;;;;;;323109;30;905;-77
2022/04/26 04:39:29;;;;;;;;;;;;;;;;;;323145;30;873;-78
2022/04/26 04:39:39;;;;;;;;;;;;;;;;;;323072;30;964;-77
2022/04/26 04:39:49;;;;;;;;;;;;;;;;;;322477;30;1356;-78
2022/04/26 04:40:00;;;;;;;;;;;;;;;;;;323035;30;1452;-77
2022/04/26 04:40:10;;;;;;;;;;;;;;;;;;323491;30;1401;-77
2022/04/26 04:40:20;;;;;;;;;;;;;;;;;;324360;30;786;-77
2022/04/26 04:40:30;;;;;;;;;;;;;;;;;;323550;30;1680;-77
2022/04/26 04:40:41;;;;;;;;;;;;;;;;;;323211;30;880;-77
2022/04/26 04:40:51;;;;;;;;;;;;;;;;;;323049;30;1015;-77
2022/04/26 04:41:01;;;;;;;;;;;;;;;;;;323075;30;771;-77
2022/04/26 04:41:12;;;;;;;;;;;;;;;;;;323149;30;948;-78
2022/04/26 04:41:22;;;;;;;;;;;;;;;;;;323155;30;825;-78
2022/04/26 04:41:36;;;;;;;;;;;;;;;;;;323070;30;817;-77
2022/04/26 04:41:46;;;;;;;;;;;;;;;;;;322894;30;861;-77
2022/04/26 04:41:59;;;;;;;;;;;;;;;;;;323015;30;921;-77
2022/04/26 04:42:09;;;;;;;;;;;;;;;;;;323010;30;945;-77
2022/04/26 04:42:21;;;;;;;;;;;;;;;;;;322921;30;1178;-78
2022/04/26 04:42:31;;;;;;;;;;;;;;;;;;322974;30;878;-83
2022/04/26 04:42:45;;;;;;;;;;;;;;;;;;323086;30;811;-78
2022/04/26 04:42:56;;;;;;;;;;;;;;;;;;323050;30;937;-76
2022/04/26 04:43:06;;;;;;;;;;;;;;;;;;323096;30;996;-77
2022/04/26 04:43:16;;;;;;;;;;;;;;;;;;322891;30;870;-78
2022/04/26 04:43:26;;;;;;;;;;;;;;;;;;323005;30;925;-78
2022/04/26 04:43:37;;;;;;;;;;;;;;;;;;323027;30;1125;-79
2022/04/26 04:43:47;;;;;;;;;;;;;;;;;;323053;30;1030;-79
2022/04/26 04:43:57;;;;;;;;;;;;;;;;;;322462;30;1410;-79
2022/04/26 04:44:07;;;;;;;;;;;;;;;;;;323040;30;1681;-78
2022/04/26 04:44:21;;;;;;;;;;;;;;;;;;321977;30;993;-77
2022/04/26 04:44:32;;;;;;;;;;;;;;;;;;322659;30;1379;-78
2022/04/26 04:44:43;;;;;;;;;;;;;;;;;;323001;30;1658;-79
2022/04/26 04:44:53;;;;;;;;;;;;;;;;;;323141;30;838;-79
2022/04/26 04:45:03;;;;;;;;;;;;;;;;;;323085;30;909;-78
2022/04/26 04:45:14;;;;;;;;;;;;;;;;;;323131;30;853;-79
2022/04/26 04:45:24;;;;;;;;;;;;;;;;;;323141;30;896;-79
2022/04/26 04:45:34;;;;;;;;;;;;;;;;;;323075;30;1016;-79
2022/04/26 04:45:44;;;;;;;;;;;;;;;;;;323033;30;905;-78
2022/04/26 04:45:55;;;;;;;;;;;;;;;;;;322225;30;2256;-79
2022/04/26 04:46:05;;;;;;;;;;;;;;;;;;322958;30;973;-79
2022/04/26 04:46:15;;;;;;;;;;;;;;;;;;323200;30;874;-78
2022/04/26 04:46:25;;;;;;;;;;;;;;;;;;323145;30;941;-78
2022/04/26 04:46:35;;;;;;;;;;;;;;;;;;323103;30;929;-78
2022/04/26 04:46:46;;;;;;;;;;;;;;;;;;323022;30;991;-79
2022/04/26 04:46:59;;;;;;;;;;;;;;;;;;323082;30;902;-80
2022/04/26 04:47:09;;;;;;;;;;;;;;;;;;323163;30;849;-79
2022/04/26 04:47:19;;;;;;;;;;;;;;;;;;323739;30;1689;-79
2022/04/26 04:47:30;;;;;;;;;;;;;;;;;;323123;30;917;-80
2022/04/26 04:47:40;;;;;;;;;;;;;;;;;;323075;30;969;-79
2022/04/26 04:47:50;;;;;;;;;;;;;;;;;;322973;30;2629;-79
2022/04/26 04:48:01;;;;;;;;;;;;;;;;;;322644;30;1424;-79
2022/04/26 04:48:11;;;;;;;;;;;;;;;;;;322886;30;1464;-79
2022/04/26 04:48:21;;;;;;;;;;;;;;;;;;322925;30;1633;-78
2022/04/26 04:48:31;;;;;;;;;;;;;;;;;;322196;30;1424;-79
2022/04/26 04:48:41;;;;;;;;;;;;;;;;;;322396;30;1483;-78
2022/04/26 04:48:52;;;;;;;;;;;;;;;;;;323080;30;917;-79
2022/04/26 04:49:02;;;;;;;;;;;;;;;;;;323098;30;918;-78
2022/04/26 04:49:13;;;;;;;;;;;;;;;;;;323108;30;921;-78
2022/04/26 04:49:23;;;;;;;;;;;;;;;;;;323126;30;818;-78
2022/04/26 04:49:34;;;;;;;;;;;;;;;;;;323143;30;900;-78
2022/04/26 04:49:44;;;;;;;;;;;;;;;;;;322991;30;806;-77
2022/04/26 04:49:54;;;;;;;;;;;;;;;;;;323037;30;1009;-77
2022/04/26 04:50:05;;;;;;;;;;;;;;;;;;322395;30;1361;-78
2022/04/26 04:50:15;;;;;;;;;;;;;;;;;;323022;30;785;-77
2022/04/26 04:50:25;;;;;;;;;;;;;;;;;;322993;30;1259;-77
2022/04/26 04:50:36;;;;;;;;;;;;;;;;;;323067;30;1063;-78
2022/04/26 04:50:46;;;;;;;;;;;;;;;;;;323212;30;829;-80
2022/04/26 04:50:56;;;;;;;;;;;;;;;;;;323137;30;857;-77
2022/04/26 04:51:07;;;;;;;;;;;;;;;;;;323082;30;862;-78
2022/04/26 04:51:17;;;;;;;;;;;;;;;;;;323100;30;1007;-79
2022/04/26 04:51:28;;;;;;;;;;;;;;;;;;323108;30;897;-78
2022/04/26 04:51:38;;;;;;;;;;;;;;;;;;323111;30;913;-79
2022/04/26 04:51:49;;;;;;;;;;;;;;;;;;322976;30;1258;-78